Aeroporto :
LOGIN :

Iscrizione | Disclaimer

   EN    FR    IT 

 










Sommario :    VFR   VFR Marginale   IFR   IFR Intensivo   IFR Molto Intensivo
Visibilità : 
Base nubi : 
>= 8 km
>= 3000ft
5 / 8 km
1000 / 3000 ft
1500m / 5 km
500 / 1000 ft
800 / 1500m
200 / 500 ft
< 800m
< 200 ft
Simboli :   Temporali  Nebbia  Neve Forte  Precipitazioni Forti  Vento > 20 kt
SIGMETs :   Varie  Temporali  Ghiacco  Turbolenza  Onda orograficha  Ceneri Vulcaniche






- Altitudine del aeroporto : 74 ft
- Codice IATA : EIN


EHEH - Eindhoven

ULTIMO METAR :
  • 271855Z AUTO 14006KT 110V190 9999 -RA OVC027 07/06 Q1013 RERA REDZ BLU NOSIG

METARs OBSOLETI :
  • 271825Z AUTO 14006KT 120V200 9999 DZRA OVC032 07/06 Q1013 REDZ BLU NOSIG
  • 271755Z AUTO 15007KT 110V170 9999 -SHRA +DZ OVC032 07/05 Q1014 BLU NOSIG
  • 271725Z AUTO 16008KT 120V240 9999 DZ OVC030 08/05 Q1014 BLU NOSIG
  • 271655Z AUTO 15007KT 100V200 9999 DZ BKN026 OVC029 08/05 Q1014 BLU NOSIG
  • 271625Z AUTO 15006KT 110V190 9999 -DZRA OVC031 08/05 Q1015 BLU NOSIG
  • 271555Z AUTO 14007KT 080V180 9999 -DZ OVC031 07/06 Q1015 REDZ BLU NOSIG

TAF TAF EHEH
Valido dal 27 a 18 ore il 29 a 00 ore UTC


271737Z 2718/2824 18007KT 9999 -RADZ BKN030 OVC045
PROB30
TEMPO 2718/2801 4000 RADZ SCT008 BKN012 OVC015
BECMG 2800/2802 BKN015 BKN030
TEMPO 2801/2822 2500 DZRA FEW002 BKN004 OVC008
BECMG 2815/2817 VRB02KT
BECMG 2822/2824 3500 BR



MetMap, La meteo Aeronautica in un colpo d'occhio ! - Copyright ORBIFLY Dicembre 2007 - Disclaimer

ORBIFLY MET'MAP TEAM :

Programmazione e sviluppo : Alexandra Zaïnal
Concezione : Baudouin d'Aumeries
Supporto tecnico e logistico : Manuel Goepfert
Aiuto : Marc-Olivier Méhu
Aiuto per la traduzione : Arnaldo La Scala




FONTI E CREDITI :

   NOAA